createdAt,value
2023-03-31T00:00:12.876Z,9.34
2023-03-31T00:02:42.559Z,9.33
2023-03-31T00:05:09.820Z,9.36
2023-03-31T00:07:38.116Z,9.36
2023-03-31T00:10:17.197Z,9.36
2023-03-31T00:12:45.708Z,9.37
2023-03-31T00:15:12.519Z,9.42
2023-03-31T00:17:39.163Z,9.45
2023-03-31T00:20:10.099Z,9.43
2023-03-31T00:22:38.591Z,9.42
2023-03-31T00:25:06.642Z,9.40
2023-03-31T00:27:33.297Z,9.42
2023-03-31T00:29:59.891Z,9.45
2023-03-31T00:32:26.483Z,9.43
2023-03-31T00:34:53.431Z,9.45
2023-03-31T00:37:20.097Z,9.49
2023-03-31T00:39:46.700Z,9.55
2023-03-31T00:42:13.368Z,9.52
2023-03-31T00:45:14.850Z,9.53
2023-03-31T00:47:52.812Z,9.52
2023-03-31T00:50:29.548Z,9.52
2023-03-31T00:53:01.632Z,9.47
2023-03-31T00:55:36.353Z,9.45
2023-03-31T00:58:06.123Z,9.38
2023-03-31T01:00:33.144Z,9.41
2023-03-31T01:03:03.455Z,9.42
2023-03-31T01:05:38.369Z,9.41
2023-03-31T01:08:06.066Z,9.39
2023-03-31T01:10:41.823Z,9.38
2023-03-31T01:13:10.752Z,9.37
2023-03-31T01:15:38.352Z,9.39
2023-03-31T01:18:10.107Z,9.38
2023-03-31T01:20:40.456Z,9.37
2023-03-31T01:23:41.722Z,9.35
2023-03-31T01:26:43.424Z,9.34
2023-03-31T01:29:45.301Z,9.36
2023-03-31T01:32:28.353Z,9.33
2023-03-31T01:35:00.984Z,9.35
2023-03-31T01:37:37.709Z,9.29
2023-03-31T01:40:43.513Z,9.31
2023-03-31T01:43:25.184Z,9.30
2023-03-31T01:45:54.771Z,9.22
2023-03-31T01:48:44.695Z,9.14
2023-03-31T01:51:21.926Z,9.11
2023-03-31T01:54:02.004Z,9.05
2023-03-31T01:56:48.520Z,8.98
2023-03-31T01:59:23.602Z,8.97
2023-03-31T02:01:56.402Z,8.96
2023-03-31T02:04:31.131Z,9.01
2023-03-31T02:07:08.461Z,9.06
2023-03-31T02:09:41.409Z,9.18
2023-03-31T02:12:11.698Z,9.18
2023-03-31T02:14:43.413Z,9.17
2023-03-31T02:17:18.164Z,9.14
2023-03-31T02:19:49.367Z,9.09
2023-03-31T02:22:19.686Z,9.02
2023-03-31T02:24:48.808Z,8.92
2023-03-31T02:27:35.364Z,8.83
2023-03-31T02:30:03.972Z,8.83
2023-03-31T02:32:38.286Z,8.85
2023-03-31T02:35:07.828Z,8.86
2023-03-31T02:37:34.612Z,8.80
2023-03-31T02:40:10.460Z,8.71
2023-03-31T02:42:39.133Z,8.63
2023-03-31T02:45:27.675Z,8.63
2023-03-31T02:47:55.435Z,8.60
2023-03-31T02:50:32.644Z,8.55
2023-03-31T02:53:25.748Z,8.46
2023-03-31T02:55:58.422Z,8.39
2023-03-31T02:58:34.407Z,8.34
2023-03-31T03:01:35.738Z,8.33
2023-03-31T03:04:09.573Z,8.29
2023-03-31T03:06:44.140Z,8.22
2023-03-31T03:09:45.960Z,8.18
2023-03-31T03:12:27.139Z,8.19
2023-03-31T03:15:03.272Z,8.16
2023-03-31T03:17:29.981Z,8.16
2023-03-31T03:20:00.886Z,8.24
2023-03-31T03:22:27.965Z,8.21
2023-03-31T03:24:54.587Z,8.20
2023-03-31T03:27:23.968Z,8.19
2023-03-31T03:29:51.094Z,8.18
2023-03-31T03:32:17.729Z,8.12
2023-03-31T03:34:44.330Z,8.11
2023-03-31T03:37:11.343Z,8.13
2023-03-31T03:39:37.891Z,8.16
2023-03-31T03:42:04.832Z,8.19
2023-03-31T03:44:31.655Z,8.24
2023-03-31T03:46:58.278Z,8.25
2023-03-31T03:49:24.876Z,8.30
2023-03-31T03:51:51.598Z,8.36
2023-03-31T03:54:18.226Z,8.43
2023-03-31T03:56:44.919Z,8.56
2023-03-31T03:59:12.468Z,8.61
2023-03-31T04:01:39.442Z,8.63
2023-03-31T04:04:06.214Z,8.65
2023-03-31T04:06:32.814Z,8.67
2023-03-31T04:08:59.460Z,8.68
2023-03-31T04:11:26.195Z,8.73
2023-03-31T04:13:52.778Z,8.72
2023-03-31T04:16:19.969Z,8.71
2023-03-31T04:18:48.618Z,8.74
2023-03-31T04:21:22.632Z,8.73
2023-03-31T04:23:58.782Z,8.70
2023-03-31T04:26:31.466Z,8.63
2023-03-31T04:29:01.171Z,8.57
2023-03-31T04:31:30.675Z,8.54
2023-03-31T04:34:02.228Z,8.52
2023-03-31T04:36:31.384Z,8.48
2023-03-31T04:38:57.995Z,8.51
2023-03-31T04:41:27.493Z,8.52
2023-03-31T04:43:54.562Z,8.54
2023-03-31T04:46:21.775Z,8.58
2023-03-31T04:48:48.504Z,8.59
2023-03-31T04:51:16.317Z,8.64
2023-03-31T04:53:42.944Z,8.65
2023-03-31T04:56:09.821Z,8.64
2023-03-31T04:58:36.649Z,8.66
2023-03-31T05:01:03.678Z,8.67
2023-03-31T05:03:30.688Z,8.64
2023-03-31T05:05:57.507Z,8.70
2023-03-31T05:08:24.038Z,8.77
2023-03-31T05:10:50.675Z,8.78
2023-03-31T05:13:17.289Z,8.77
2023-03-31T05:15:45.324Z,8.77
2023-03-31T05:18:12.212Z,8.74
2023-03-31T05:20:39.159Z,8.72
2023-03-31T05:23:06.943Z,8.69
2023-03-31T05:25:33.914Z,8.68
2023-03-31T05:28:01.023Z,8.66
2023-03-31T05:30:28.862Z,8.68
2023-03-31T05:32:56.041Z,8.74
2023-03-31T05:35:25.947Z,8.75
2023-03-31T05:37:52.555Z,8.78
2023-03-31T05:40:19.242Z,8.76
2023-03-31T05:42:45.939Z,8.84
2023-03-31T05:45:12.777Z,8.84
2023-03-31T05:47:39.482Z,8.89
2023-03-31T05:50:09.080Z,8.95
2023-03-31T05:52:36.476Z,9.00
2023-03-31T05:55:04.408Z,9.14
2023-03-31T05:57:31.400Z,9.23
2023-03-31T05:59:58.228Z,9.29
2023-03-31T06:02:25.318Z,9.39
2023-03-31T06:04:52.641Z,9.43
2023-03-31T06:07:19.227Z,9.45
2023-03-31T06:09:46.146Z,9.55
2023-03-31T06:12:12.721Z,9.62
2023-03-31T06:14:39.346Z,9.66
2023-03-31T06:17:06.196Z,9.70
2023-03-31T06:19:32.859Z,9.75
2023-03-31T06:21:59.806Z,9.77
2023-03-31T06:24:26.674Z,9.79
2023-03-31T06:26:53.943Z,9.78
2023-03-31T06:29:21.097Z,9.85
2023-03-31T06:31:47.796Z,9.96
2023-03-31T06:34:14.457Z,10.04
2023-03-31T06:36:41.944Z,10.12
2023-03-31T06:39:08.616Z,10.18
2023-03-31T06:41:35.366Z,10.25
2023-03-31T06:44:01.957Z,10.28
2023-03-31T06:46:28.608Z,10.30
2023-03-31T06:48:55.442Z,10.34
2023-03-31T06:51:22.407Z,10.44
2023-03-31T06:53:49.051Z,10.59
2023-03-31T06:56:15.738Z,10.72
2023-03-31T06:58:42.267Z,10.87
2023-03-31T07:01:09.099Z,11.02
2023-03-31T07:03:36.341Z,11.12
2023-03-31T07:06:03.141Z,11.16
2023-03-31T07:08:31.279Z,11.17
2023-03-31T07:11:00.441Z,11.15
2023-03-31T07:13:27.978Z,11.10
2023-03-31T07:15:55.702Z,11.12
2023-03-31T07:18:26.192Z,11.06
2023-03-31T07:20:53.043Z,11.03
2023-03-31T07:23:19.981Z,11.03
2023-03-31T07:25:48.193Z,11.01
2023-03-31T07:28:15.324Z,10.99
2023-03-31T07:30:41.854Z,11.01
2023-03-31T07:33:08.830Z,11.00
2023-03-31T07:35:38.111Z,11.02
2023-03-31T07:38:04.714Z,11.13
2023-03-31T07:40:31.282Z,11.26
2023-03-31T07:42:57.950Z,11.47
2023-03-31T07:45:25.877Z,11.73
2023-03-31T07:47:52.487Z,11.96
2023-03-31T07:50:19.301Z,12.19
2023-03-31T07:52:48.488Z,12.32
2023-03-31T07:55:15.483Z,12.51
2023-03-31T07:57:44.792Z,12.56
2023-03-31T08:00:12.600Z,12.57
2023-03-31T08:02:39.933Z,12.56
2023-03-31T08:05:07.245Z,12.55
2023-03-31T08:07:37.785Z,12.51
2023-03-31T08:10:05.813Z,12.49
2023-03-31T08:12:32.275Z,12.47
2023-03-31T08:14:58.809Z,12.43
2023-03-31T08:17:25.659Z,12.34
2023-03-31T08:19:52.259Z,12.23
2023-03-31T08:22:18.736Z,12.13
2023-03-31T08:24:45.306Z,12.01
2023-03-31T08:27:12.256Z,11.91
2023-03-31T08:29:39.130Z,11.83
2023-03-31T08:32:07.197Z,11.74
2023-03-31T08:34:34.134Z,11.78
2023-03-31T08:37:00.731Z,11.87
2023-03-31T08:39:27.395Z,11.84
2023-03-31T08:41:56.914Z,11.86
2023-03-31T08:44:29.606Z,11.86
2023-03-31T08:46:58.587Z,11.88
2023-03-31T08:49:26.701Z,11.87
2023-03-31T08:51:56.109Z,11.85
2023-03-31T08:54:29.555Z,11.82
2023-03-31T08:56:56.014Z,11.79
2023-03-31T08:59:33.152Z,11.77
2023-03-31T09:02:03.825Z,11.74
2023-03-31T09:04:30.494Z,11.69
2023-03-31T09:07:07.475Z,11.67
2023-03-31T09:09:46.715Z,11.64
2023-03-31T09:12:36.326Z,11.58
2023-03-31T09:15:19.724Z,11.50
2023-03-31T09:17:48.413Z,11.37
2023-03-31T09:20:17.603Z,11.28
2023-03-31T09:22:48.952Z,11.19
2023-03-31T09:25:18.409Z,11.13
2023-03-31T09:27:45.255Z,11.12
2023-03-31T09:30:11.820Z,11.13
2023-03-31T09:32:39.272Z,11.09
2023-03-31T09:35:15.145Z,11.08
2023-03-31T09:37:41.862Z,11.09
2023-03-31T09:40:15.878Z,11.06
2023-03-31T09:42:42.389Z,11.05
2023-03-31T09:45:17.369Z,11.08
2023-03-31T09:47:46.687Z,11.07
2023-03-31T09:50:14.266Z,11.10
2023-03-31T09:52:42.869Z,11.15
2023-03-31T09:55:28.298Z,11.13
2023-03-31T09:58:06.476Z,11.05
2023-03-31T10:00:34.013Z,11.03
2023-03-31T10:03:09.223Z,10.99
2023-03-31T10:05:41.165Z,10.95
2023-03-31T10:08:20.142Z,10.92
2023-03-31T10:11:01.708Z,10.87
2023-03-31T10:13:37.112Z,10.84
2023-03-31T10:16:05.001Z,10.81
2023-03-31T10:18:33.249Z,10.79
2023-03-31T10:21:00.378Z,10.77
2023-03-31T10:23:29.728Z,10.77
2023-03-31T10:25:56.698Z,10.83
2023-03-31T10:28:23.381Z,10.80
2023-03-31T10:30:54.619Z,10.80
2023-03-31T10:33:25.730Z,10.78
2023-03-31T10:36:07.108Z,10.77
2023-03-31T10:38:45.184Z,10.81
2023-03-31T10:41:12.354Z,10.80
2023-03-31T10:43:41.374Z,10.80
2023-03-31T10:46:08.422Z,10.84
2023-03-31T10:48:38.742Z,10.87
2023-03-31T10:51:13.494Z,10.89
2023-03-31T10:53:42.262Z,10.95
2023-03-31T10:56:20.780Z,11.03
2023-03-31T10:59:04.628Z,11.05
2023-03-31T11:01:32.975Z,11.09
2023-03-31T11:04:07.902Z,11.15
2023-03-31T11:06:34.491Z,11.12
2023-03-31T11:09:06.860Z,11.03
2023-03-31T11:11:51.891Z,10.98
2023-03-31T11:14:24.360Z,10.95
2023-03-31T11:16:56.868Z,10.90
2023-03-31T11:19:29.525Z,10.89
2023-03-31T11:21:56.315Z,10.90
2023-03-31T11:24:26.283Z,10.88
2023-03-31T11:26:58.787Z,10.87
2023-03-31T11:29:31.411Z,10.84
2023-03-31T11:32:06.968Z,10.82
2023-03-31T11:34:53.105Z,10.78
2023-03-31T11:37:35.462Z,10.58
2023-03-31T11:40:18.977Z,10.49
2023-03-31T11:42:54.358Z,10.32
2023-03-31T11:45:50.400Z,10.20
2023-03-31T11:48:22.194Z,10.08
2023-03-31T11:50:49.437Z,9.93
2023-03-31T11:53:17.792Z,9.89
2023-03-31T11:55:47.530Z,9.82
2023-03-31T11:58:16.978Z,9.71
2023-03-31T12:01:00.176Z,9.64
2023-03-31T12:03:47.192Z,9.59
2023-03-31T12:06:19.867Z,9.57
2023-03-31T12:08:51.160Z,9.58
2023-03-31T12:11:30.558Z,9.56
2023-03-31T12:14:05.872Z,9.58
2023-03-31T12:16:41.467Z,9.50
2023-03-31T12:19:11.743Z,9.41
2023-03-31T12:21:41.197Z,9.33
2023-03-31T12:24:12.071Z,9.28
2023-03-31T12:26:48.369Z,9.31
2023-03-31T12:29:23.872Z,9.20
2023-03-31T12:31:53.029Z,9.13
2023-03-31T12:34:21.949Z,9.10
2023-03-31T12:37:07.273Z,9.09
2023-03-31T12:39:46.593Z,9.07
2023-03-31T12:42:31.742Z,9.08
2023-03-31T12:45:06.646Z,9.08
2023-03-31T12:47:45.701Z,9.07
2023-03-31T12:50:31.018Z,9.04
2023-03-31T12:53:05.621Z,9.00
2023-03-31T12:55:35.593Z,8.96
2023-03-31T12:58:33.088Z,8.90
2023-03-31T13:01:05.305Z,8.87
2023-03-31T13:03:35.360Z,8.87
2023-03-31T13:06:02.782Z,8.87
2023-03-31T13:08:48.418Z,8.89
2023-03-31T13:11:15.192Z,8.90
2023-03-31T13:13:59.886Z,8.87
2023-03-31T13:16:27.378Z,8.95
2023-03-31T13:18:54.697Z,9.04
2023-03-31T13:21:22.110Z,9.09
2023-03-31T13:23:48.819Z,9.17
2023-03-31T13:26:33.560Z,9.17
2023-03-31T13:29:10.262Z,9.11
2023-03-31T13:31:55.253Z,9.06
2023-03-31T13:34:21.980Z,9.05
2023-03-31T13:36:52.677Z,9.11
2023-03-31T13:39:34.624Z,9.14
2023-03-31T13:42:01.356Z,9.16
2023-03-31T13:44:29.364Z,9.14
2023-03-31T13:47:18.609Z,9.13
2023-03-31T13:49:56.366Z,9.17
2023-03-31T13:52:38.158Z,9.16
2023-03-31T13:55:07.647Z,9.14
2023-03-31T13:57:52.651Z,9.13
2023-03-31T14:00:19.252Z,9.18
2023-03-31T14:02:48.879Z,9.14
2023-03-31T14:05:24.834Z,9.09
2023-03-31T14:08:23.886Z,9.05
2023-03-31T14:10:50.432Z,9.08
2023-03-31T14:13:24.124Z,9.11
2023-03-31T14:15:51.324Z,9.15
2023-03-31T14:18:27.094Z,9.20
2023-03-31T14:21:12.321Z,9.21
2023-03-31T14:23:44.255Z,9.28
2023-03-31T14:26:39.959Z,9.33
2023-03-31T14:29:14.831Z,9.49
2023-03-31T14:31:49.800Z,9.69
2023-03-31T14:34:19.507Z,9.85
2023-03-31T14:37:03.289Z,9.93
2023-03-31T14:39:32.324Z,10.01
2023-03-31T14:42:06.395Z,10.06
2023-03-31T14:44:33.924Z,10.01
2023-03-31T14:47:00.554Z,10.05
2023-03-31T14:49:28.404Z,10.19
2023-03-31T14:51:56.206Z,10.33
2023-03-31T14:54:22.747Z,10.38
2023-03-31T14:56:52.917Z,10.59
2023-03-31T14:59:21.888Z,11.03
2023-03-31T15:01:49.695Z,11.45
2023-03-31T15:04:20.417Z,11.71
2023-03-31T15:06:50.876Z,11.86
2023-03-31T15:09:23.743Z,12.07
2023-03-31T15:11:54.211Z,12.25
2023-03-31T15:14:20.973Z,12.33
2023-03-31T15:16:50.217Z,12.51
2023-03-31T15:19:22.831Z,12.87
2023-03-31T15:22:05.347Z,13.17
2023-03-31T15:24:31.908Z,13.10
2023-03-31T15:26:58.392Z,13.16
2023-03-31T15:29:27.467Z,13.33
2023-03-31T15:31:56.703Z,13.04
2023-03-31T15:34:29.962Z,12.77
2023-03-31T15:36:57.246Z,12.39
2023-03-31T15:39:24.985Z,11.97
2023-03-31T15:41:52.225Z,11.62
2023-03-31T15:44:28.641Z,11.37
2023-03-31T15:46:57.892Z,11.13
2023-03-31T15:49:24.651Z,10.99
2023-03-31T15:51:51.829Z,10.85
2023-03-31T15:54:30.235Z,10.77
2023-03-31T15:56:59.676Z,10.69
2023-03-31T15:59:34.413Z,10.64
2023-03-31T16:02:16.625Z,10.59
2023-03-31T16:04:43.222Z,10.47
2023-03-31T16:07:16.103Z,10.39
2023-03-31T16:09:47.417Z,10.24
2023-03-31T16:12:35.221Z,10.13
2023-03-31T16:15:04.684Z,9.94
2023-03-31T16:17:33.578Z,9.80
2023-03-31T16:20:07.436Z,9.77
2023-03-31T16:22:37.297Z,9.74
2023-03-31T16:25:09.205Z,9.74
2023-03-31T16:27:40.815Z,9.67
2023-03-31T16:30:09.014Z,9.62
2023-03-31T16:32:36.180Z,9.58
2023-03-31T16:35:04.613Z,9.63
2023-03-31T16:37:32.025Z,9.58
2023-03-31T16:39:58.932Z,9.59
2023-03-31T16:42:26.041Z,9.57
2023-03-31T16:45:09.532Z,9.49
2023-03-31T16:47:39.519Z,9.41
2023-03-31T16:50:07.888Z,9.39
2023-03-31T16:52:34.726Z,9.38
2023-03-31T16:55:01.392Z,9.36
2023-03-31T16:57:28.160Z,9.31
2023-03-31T16:59:57.353Z,9.21
2023-03-31T17:02:25.001Z,9.09
2023-03-31T17:04:54.248Z,9.02
2023-03-31T17:07:23.532Z,8.94
2023-03-31T17:09:50.583Z,8.87
2023-03-31T17:12:18.266Z,8.82
2023-03-31T17:14:45.827Z,8.76
2023-03-31T17:17:14.732Z,8.70
2023-03-31T17:19:43.238Z,8.63
2023-03-31T17:22:10.622Z,8.57
2023-03-31T17:24:37.137Z,8.48
2023-03-31T17:27:03.655Z,8.45
2023-03-31T17:29:30.579Z,8.39
2023-03-31T17:31:57.199Z,8.35
2023-03-31T17:34:23.719Z,8.30
2023-03-31T17:36:51.574Z,8.26
2023-03-31T17:39:18.048Z,8.20
2023-03-31T17:41:45.126Z,8.18
2023-03-31T17:44:12.664Z,8.13
2023-03-31T17:46:40.234Z,8.08
2023-03-31T17:49:07.281Z,8.05
2023-03-31T17:51:36.227Z,8.01
2023-03-31T17:54:04.305Z,7.99
2023-03-31T17:56:31.941Z,7.96
2023-03-31T17:58:59.349Z,7.95
2023-03-31T18:01:26.037Z,7.92
2023-03-31T18:03:54.572Z,7.90
2023-03-31T18:06:21.007Z,7.90
2023-03-31T18:08:47.970Z,7.91
2023-03-31T18:11:14.516Z,7.94
2023-03-31T18:13:41.520Z,8.01
2023-03-31T18:16:09.510Z,7.95
2023-03-31T18:18:36.806Z,7.87
2023-03-31T18:21:04.467Z,7.87
2023-03-31T18:23:32.020Z,7.87
2023-03-31T18:25:58.603Z,7.90
2023-03-31T18:28:25.260Z,7.94
2023-03-31T18:30:53.234Z,8.05
2023-03-31T18:33:20.330Z,8.13
2023-03-31T18:35:46.999Z,8.20
2023-03-31T18:38:13.843Z,8.26
2023-03-31T18:40:46.992Z,8.31
2023-03-31T18:43:13.648Z,8.34
2023-03-31T18:45:40.076Z,8.40
2023-03-31T18:48:07.138Z,8.47
2023-03-31T18:50:33.903Z,8.53
2023-03-31T18:53:00.388Z,8.57
2023-03-31T18:55:29.202Z,8.59
2023-03-31T18:57:56.578Z,8.61
2023-03-31T19:00:24.302Z,8.61
2023-03-31T19:02:52.018Z,8.60
2023-03-31T19:05:19.232Z,8.60
2023-03-31T19:07:45.859Z,8.66
2023-03-31T19:10:13.185Z,8.67
2023-03-31T19:12:39.642Z,8.66
2023-03-31T19:15:07.163Z,8.61
2023-03-31T19:17:34.722Z,8.58
2023-03-31T19:20:01.339Z,8.60
2023-03-31T19:22:29.725Z,8.63
2023-03-31T19:24:56.223Z,8.60
2023-03-31T19:27:23.250Z,8.65
2023-03-31T19:29:49.820Z,8.71
2023-03-31T19:32:16.849Z,8.76
2023-03-31T19:34:43.734Z,8.81
2023-03-31T19:37:11.060Z,8.80
2023-03-31T19:39:37.780Z,8.91
2023-03-31T19:42:04.390Z,8.94
2023-03-31T19:44:30.895Z,8.89
2023-03-31T19:46:58.737Z,8.91
2023-03-31T19:49:25.382Z,8.88
2023-03-31T19:51:52.386Z,8.89
2023-03-31T19:54:18.918Z,8.87
2023-03-31T19:56:45.476Z,8.84
2023-03-31T19:59:12.089Z,8.87
2023-03-31T20:01:38.729Z,8.85
2023-03-31T20:04:05.537Z,8.83
2023-03-31T20:06:33.626Z,8.81
2023-03-31T20:09:01.085Z,8.84
2023-03-31T20:11:28.613Z,8.82
2023-03-31T20:13:55.913Z,8.82
2023-03-31T20:16:23.963Z,8.81
2023-03-31T20:18:56.679Z,8.80
2023-03-31T20:21:25.248Z,8.78
2023-03-31T20:23:53.374Z,8.76
2023-03-31T20:26:21.339Z,8.74
2023-03-31T20:28:49.010Z,8.73
2023-03-31T20:31:39.615Z,8.77
2023-03-31T20:34:12.056Z,8.83
2023-03-31T20:36:39.055Z,8.79
2023-03-31T20:39:06.312Z,8.73
2023-03-31T20:41:33.768Z,8.69
2023-03-31T20:44:00.966Z,8.60
2023-03-31T20:46:28.084Z,8.53
2023-03-31T20:48:56.547Z,8.41
2023-03-31T20:51:25.198Z,8.34
2023-03-31T20:53:53.088Z,8.29
2023-03-31T20:56:21.248Z,8.25
2023-03-31T20:58:48.266Z,8.18
2023-03-31T21:01:15.482Z,8.12
2023-03-31T21:03:42.499Z,8.05
2023-03-31T21:06:11.658Z,8.03
2023-03-31T21:08:38.615Z,8.06
2023-03-31T21:11:05.390Z,8.04
2023-03-31T21:13:32.367Z,8.00
2023-03-31T21:15:59.790Z,8.01
2023-03-31T21:18:26.940Z,8.00
2023-03-31T21:20:54.763Z,7.99
2023-03-31T21:23:22.155Z,8.01
2023-03-31T21:25:49.403Z,8.04
2023-03-31T21:28:20.625Z,8.02
2023-03-31T21:30:51.842Z,7.98
2023-03-31T21:33:18.575Z,7.98
2023-03-31T21:35:45.128Z,7.98
2023-03-31T21:38:12.034Z,7.98
2023-03-31T21:40:38.508Z,7.98
2023-03-31T21:43:05.153Z,7.97
2023-03-31T21:45:32.014Z,7.94
2023-03-31T21:47:59.089Z,7.94
2023-03-31T21:50:25.580Z,7.96
2023-03-31T21:52:52.018Z,7.96
2023-03-31T21:55:18.533Z,7.96
2023-03-31T21:57:45.045Z,7.99
2023-03-31T22:00:12.849Z,7.99
2023-03-31T22:02:39.518Z,7.97
2023-03-31T22:05:06.544Z,8.00
2023-03-31T22:07:33.165Z,8.00
2023-03-31T22:09:59.629Z,8.01
2023-03-31T22:12:26.442Z,8.00
2023-03-31T22:14:53.138Z,8.00
2023-03-31T22:17:20.800Z,7.99
2023-03-31T22:19:47.975Z,8.01
2023-03-31T22:22:14.634Z,8.08
2023-03-31T22:24:41.430Z,8.06
2023-03-31T22:27:08.097Z,8.08
2023-03-31T22:29:35.670Z,8.06
2023-03-31T22:32:02.225Z,8.02
2023-03-31T22:34:28.788Z,8.02
2023-03-31T22:36:55.338Z,8.01
2023-03-31T22:39:21.795Z,8.00
2023-03-31T22:41:48.961Z,8.08
2023-03-31T22:44:16.770Z,8.08
2023-03-31T22:46:46.640Z,8.11
2023-03-31T22:49:13.735Z,8.10
2023-03-31T22:51:41.601Z,8.11
2023-03-31T22:54:11.278Z,8.13
2023-03-31T22:56:37.730Z,8.11
2023-03-31T22:59:05.720Z,8.08
2023-03-31T23:01:32.212Z,8.05
2023-03-31T23:04:00.565Z,8.06
2023-03-31T23:06:27.438Z,8.07
2023-03-31T23:08:53.963Z,8.05
2023-03-31T23:11:20.566Z,8.05
2023-03-31T23:13:47.386Z,8.05
2023-03-31T23:16:18.664Z,8.02
2023-03-31T23:18:47.419Z,7.99
2023-03-31T23:21:22.580Z,8.09
2023-03-31T23:23:53.715Z,8.10
2023-03-31T23:26:20.737Z,8.08
2023-03-31T23:28:49.282Z,8.07
2023-03-31T23:31:26.709Z,8.14
2023-03-31T23:33:53.378Z,8.10
2023-03-31T23:36:21.214Z,8.14
2023-03-31T23:38:48.875Z,8.12
2023-03-31T23:41:16.202Z,8.15
2023-03-31T23:43:43.137Z,8.15
2023-03-31T23:46:09.889Z,8.20
2023-03-31T23:48:37.008Z,8.16
2023-03-31T23:51:04.671Z,8.15
2023-03-31T23:53:31.164Z,8.13
2023-03-31T23:56:03.489Z,8.09
2023-03-31T23:58:30.931Z,8.05
